Port Jefferson, NY

3:06 AM EDT on March 29, 2015 (GMT -0400)
Long Island Mac Arthur | | Change Station
CLOSE
Current Station
Airport
Location: Islip,
Elevation: 98 ft
Nearby Weather Stations
Active Advisory: Special Statement Active Notice: Public Information Statement

Elev 98 ft 40.79 °N, 73.10 °W | Updated 10 minutes ago

Snow
Snow
26 °F
Feels Like 13 °F
N
17
Wind Variable Wind from NNW
Gusts 22 mph

Today
High -- | Low -- °F
--% Chance of Precip.
Yesterday
High -- | Low -- °F
Precip. -- in
6:41 AM 7:13 PM
Waxing Gibbous, 69% visible
Pressure 30.09 in
Visibility 7.0 miles
Clouds Overcast 4200 ft
Windchill 13 °F
Dew Point 18 °F
Humidity 71%
Rainfall 0.00 in
Snow Depth Not available.
UV 0 out of 12
Pollen 3.60 out of 12
Air Quality Not available.
Flu Activity Not available.
METAR KISP 290656Z AUTO 34015G19KT 7SM -SN OVC042 M03/M08 A3008 RMK AO2 SNE21B56 SLP187 P0000 T10331078

More Conditions Fewer Conditions

Pressure 30.09 in
Visibility 7.0 miles
Clouds Overcast 4200 ft
Windchill 13 °F
Dew Point 18 °F
Humidity 71%
Rainfall 0.00 in
Snow Depth Not available.
UV 0 out of 12
Pollen 3.60 out of 12
Air Quality Not available.
Flu Activity Not available.
METAR KISP 290656Z AUTO 34015G19KT 7SM -SN OVC042 M03/M08 A3008 RMK AO2 SNE21B56 SLP187 P0000 T10331078

More Conditions Fewer Conditions

10-Day Weather Forecast

Almanac

Astronomy

Mar. 29, 2015 Rise Set
Actual Time
Civil Twilight
Nautical Twilight
Astronomical Twilight
Moon
Length of Visible Light
Length of Day
Tomorrow will be .
, % of the Moon is Illuminated

Today's Extremes

State Highs State Lows

Community

WunderPhotos

Upload Photos

1,809,187 photos uploaded!

WunderBlogs® & News

Nearby

Air Quality

  Air Quality AQ Index Pollutant
Not available.

Snow Depth

Station Depth Elevation

Earthquake Activity

City Distance Mag. Time & Date
Minimum magnitude displayed is 2.5.

Coastal Water Temperatures

Place Temperature

Stations

Nearby Weather Stations

Station Location Temp. Windchill Dew Point Humidity Wind Precip. Elev Updated Type
                   
Special Statement
Statement as of 2:56 AM EDT on March 29, 2015

Light snow has ended with some light snow across areas of western
Suffolk County. Temperatures will remain in the mid 20s into early
this morning... rising above freezing around midday. Expect snow to
remain on untreated surface... with patchy black ice on surface
where melting occurred earlier and refroze... into Sunday
morning. Please exercise caution when traveling.